Time;durP1;ratioP1;P1;durP2;ratioP2;P2;SDS_P1;SDS_P2;PMS_P1;PMS_P2;Temp;Humidity;BMP_temperature;BMP_pressure;BME280_temperature;BME280_humidity;BME280_pressure;Samples;Min_cycle;Max_cycle;Signal;HPM_P1;HPM_P2
2023/04/16 00:05:09;;;;;;;6.87;5.30;;;8.80;99.90;;;;;;10471372;28;20227;-86
2023/04/16 00:10:31;;;;;;;7.47;4.33;;;8.80;99.90;;;;;;10488898;28;20397;-86
2023/04/16 00:15:52;;;;;;;5.63;4.20;;;8.80;99.90;;;;;;10498400;28;20221;-86
2023/04/16 00:21:15;;;;;;;5.50;4.60;;;8.70;99.90;;;;;;10497790;28;20217;-86
2023/04/16 00:26:36;;;;;;;7.00;4.40;;;8.70;99.90;;;;;;10477374;28;20232;-86
2023/04/16 00:31:59;;;;;;;4.80;4.27;;;8.70;99.90;;;;;;10504116;28;20518;-86
2023/04/16 00:37:21;;;;;;;5.90;4.10;;;8.70;99.90;;;;;;10514421;28;20410;-87
2023/04/16 00:42:42;;;;;;;5.03;4.33;;;8.80;99.90;;;;;;10535921;28;20299;-86
2023/04/16 00:48:05;;;;;;;4.97;4.47;;;8.60;99.90;;;;;;10536630;28;20247;-86
2023/04/16 00:53:26;;;;;;;5.97;5.00;;;8.70;99.90;;;;;;10517294;28;20208;-86
2023/04/16 00:58:48;;;;;;;7.40;4.93;;;8.60;99.90;;;;;;10524068;28;20222;-86
2023/04/16 01:04:09;;;;;;;6.40;5.37;;;8.70;99.90;;;;;;10553080;28;20232;-85
2023/04/16 01:09:30;;;;;;;5.53;5.03;;;8.70;99.90;;;;;;10527720;28;20395;-87
2023/04/16 01:14:52;;;;;;;6.67;5.17;;;8.60;99.90;;;;;;10509055;28;20390;-87
2023/04/16 01:20:13;;;;;;;5.20;4.70;;;8.60;99.90;;;;;;10535240;28;20230;-86
2023/04/16 01:25:34;;;;;;;6.50;5.70;;;8.70;99.90;;;;;;10515921;28;20210;-86
2023/04/16 01:30:56;;;;;;;6.97;6.00;;;8.60;99.90;;;;;;10526481;28;20189;-87
2023/04/16 01:36:35;;;;;;;7.20;5.90;;;8.60;99.90;;;;;;10514776;28;20237;-86
2023/04/16 01:41:56;;;;;;;7.53;5.57;;;8.60;99.90;;;;;;10494572;28;20551;-87
2023/04/16 01:47:17;;;;;;;6.30;5.23;;;8.60;99.90;;;;;;10519441;28;20201;-87
2023/04/16 01:52:39;;;;;;;7.03;5.47;;;8.60;99.90;;;;;;10502029;28;20214;-86
2023/04/16 01:58:00;;;;;;;6.97;5.60;;;8.60;99.90;;;;;;10512634;28;20204;-86
2023/04/16 02:03:26;;;;;;;6.93;5.37;;;8.50;99.90;;;;;;10549282;28;20297;-87
2023/04/16 02:08:48;;;;;;;7.87;6.23;;;8.40;99.90;;;;;;10522124;28;20201;-86
2023/04/16 02:14:09;;;;;;;7.27;5.80;;;8.40;99.90;;;;;;10491132;28;20229;-87
2023/04/16 02:19:30;;;;;;;6.93;5.40;;;8.40;99.90;;;;;;10529052;28;20196;-87
2023/04/16 02:24:52;;;;;;;7.03;5.83;;;8.50;99.90;;;;;;10524061;28;20229;-87
2023/04/16 02:30:13;;;;;;;7.93;5.43;;;8.40;99.90;;;;;;10506587;28;20232;-87
2023/04/16 02:35:35;;;;;;;5.70;5.10;;;8.50;99.90;;;;;;10489534;28;20198;-86
2023/04/16 02:40:58;;;;;;;5.50;4.77;;;8.40;99.90;;;;;;10496059;28;20296;-86
2023/04/16 02:46:19;;;;;;;6.67;5.27;;;8.40;99.90;;;;;;10505853;28;20225;-87
2023/04/16 02:51:41;;;;;;;6.63;5.43;;;8.40;99.90;;;;;;10489415;28;20223;-86
2023/04/16 02:57:03;;;;;;;5.80;4.90;;;8.40;99.90;;;;;;10516977;28;20212;-86
2023/04/16 03:02:24;;;;;;;7.13;5.30;;;8.40;99.90;;;;;;10533262;28;20361;-88
2023/04/16 03:07:45;;;;;;;6.37;4.80;;;8.30;99.90;;;;;;10530927;28;20287;-87
2023/04/16 03:13:08;;;;;;;6.67;5.27;;;8.20;99.90;;;;;;10495326;28;20251;-87
2023/04/16 03:18:30;;;;;;;6.23;5.43;;;8.40;99.90;;;;;;10527753;28;20445;-87
2023/04/16 03:23:52;;;;;;;7.10;5.80;;;8.20;99.90;;;;;;10500476;28;20228;-87
2023/04/16 03:29:14;;;;;;;7.50;5.40;;;8.20;99.90;;;;;;10514230;28;20196;-87
2023/04/16 03:34:36;;;;;;;6.63;5.50;;;8.20;99.90;;;;;;10554924;28;20196;-87
2023/04/16 03:39:58;;;;;;;7.43;6.60;;;8.20;99.90;;;;;;10495190;28;20531;-88
2023/04/16 03:45:19;;;;;;;8.17;7.30;;;8.10;99.90;;;;;;10528749;28;20224;-87
2023/04/16 03:50:47;;;;;;;11.13;8.33;;;8.10;99.90;;;;;;10549865;28;20478;-87
2023/04/16 03:56:10;;;;;;;10.47;8.10;;;8.00;99.90;;;;;;10522716;28;20220;-87
2023/04/16 04:01:32;;;;;;;8.47;7.33;;;7.80;99.90;;;;;;10552845;28;20221;-88
2023/04/16 04:06:54;;;;;;;11.33;7.03;;;8.00;99.90;;;;;;10518918;28;20278;-86
2023/04/16 04:12:17;;;;;;;9.67;6.50;;;8.00;99.90;;;;;;10494529;28;20229;-86
2023/04/16 04:17:39;;;;;;;8.40;6.50;;;7.90;99.90;;;;;;10510885;28;20204;-86
2023/04/16 04:23:01;;;;;;;37.00;23.57;;;7.90;99.90;;;;;;10517393;28;20227;-87
2023/04/16 04:28:23;;;;;;;63.47;33.17;;;8.00;99.90;;;;;;10538279;28;20234;-87
2023/04/16 04:33:45;;;;;;;125.70;51.30;;;7.90;99.90;;;;;;10552024;28;20199;-88
2023/04/16 04:39:06;;;;;;;95.53;37.73;;;7.90;99.90;;;;;;10473660;28;20394;-87
2023/04/16 04:44:29;;;;;;;39.30;18.90;;;8.00;99.90;;;;;;10454782;28;20595;-87
2023/04/16 04:49:51;;;;;;;28.27;14.00;;;7.90;99.90;;;;;;10492927;28;20182;-87
2023/04/16 04:55:14;;;;;;;17.23;8.70;;;7.90;99.90;;;;;;10473321;28;20201;-88
2023/04/16 05:00:36;;;;;;;11.47;6.40;;;8.00;99.90;;;;;;10470167;28;20217;-87
2023/04/16 05:05:58;;;;;;;9.07;5.57;;;8.00;99.90;;;;;;10474057;28;20298;-87
2023/04/16 05:11:19;;;;;;;6.87;5.40;;;7.90;99.90;;;;;;10509463;28;20446;-88
2023/04/16 05:16:41;;;;;;;7.87;5.50;;;8.00;99.90;;;;;;10493866;28;20382;-87
2023/04/16 05:22:02;;;;;;;7.10;4.97;;;8.00;99.90;;;;;;10493038;28;20229;-87
2023/04/16 05:27:24;;;;;;;9.63;6.50;;;8.10;99.90;;;;;;10508191;28;20196;-88
2023/04/16 05:32:45;;;;;;;88.23;38.27;;;8.10;99.90;;;;;;10507414;28;20278;-88
2023/04/16 05:38:07;;;;;;;270.23;95.50;;;8.10;99.90;;;;;;10490731;28;20233;-87
2023/04/16 05:43:28;;;;;;;238.67;96.30;;;8.10;99.90;;;;;;10507072;28;20293;-87
2023/04/16 05:48:49;;;;;;;168.77;72.33;;;8.10;99.90;;;;;;10502821;28;20195;-87
2023/04/16 05:54:11;;;;;;;66.77;30.93;;;8.20;99.90;;;;;;10531901;28;20275;-87
2023/04/16 05:59:33;;;;;;;48.77;28.63;;;8.20;99.90;;;;;;10534441;28;20186;-87
2023/04/16 06:04:54;;;;;;;48.10;21.70;;;8.10;99.90;;;;;;10503683;28;20434;-88
2023/04/16 06:10:15;;;;;;;26.73;11.97;;;8.10;99.90;;;;;;10475965;28;20277;-87
2023/04/16 06:15:36;;;;;;;24.60;9.70;;;8.10;99.90;;;;;;10489273;28;20195;-88
2023/04/16 06:20:58;;;;;;;16.67;7.63;;;8.20;99.90;;;;;;10491590;28;20214;-87
2023/04/16 06:26:19;;;;;;;14.67;7.97;;;8.20;99.90;;;;;;10488787;28;20204;-87
2023/04/16 06:31:40;;;;;;;17.63;8.83;;;8.20;99.90;;;;;;10510831;28;20192;-87
2023/04/16 06:37:02;;;;;;;24.13;11.97;;;8.40;99.90;;;;;;10511894;28;20240;-87
2023/04/16 06:42:23;;;;;;;21.20;13.30;;;8.30;99.90;;;;;;10532762;28;20300;-87
2023/04/16 06:47:45;;;;;;;13.37;8.67;;;8.30;99.90;;;;;;10511046;28;20196;-87
2023/04/16 06:53:06;;;;;;;10.57;7.50;;;8.20;99.90;;;;;;10515892;28;20197;-87
2023/04/16 06:58:27;;;;;;;9.53;7.13;;;8.10;99.90;;;;;;10515544;28;20287;-86
2023/04/16 07:03:49;;;;;;;9.00;6.97;;;8.10;99.90;;;;;;10531203;28;20233;-88
2023/04/16 07:09:11;;;;;;;13.57;10.33;;;8.20;99.90;;;;;;10490850;28;20205;-87
2023/04/16 07:14:32;;;;;;;15.93;10.53;;;8.20;99.90;;;;;;10488139;28;20197;-87
2023/04/16 07:19:54;;;;;;;7.93;6.27;;;8.40;99.90;;;;;;10502257;28;20214;-85
2023/04/16 07:25:15;;;;;;;11.33;7.07;;;8.50;99.90;;;;;;10542639;28;20228;-87
2023/04/16 07:30:37;;;;;;;16.00;8.47;;;8.60;99.90;;;;;;10528447;28;20444;-86
2023/04/16 07:35:58;;;;;;;32.20;16.43;;;8.50;99.90;;;;;;10488935;28;20561;-86
2023/04/16 07:41:19;;;;;;;14.57;9.13;;;8.50;99.90;;;;;;10504373;28;20197;-87
2023/04/16 07:46:41;;;;;;;19.70;9.27;;;8.40;99.90;;;;;;10487007;28;20284;-86
2023/04/16 07:52:18;;;;;;;9.67;5.70;;;8.50;99.90;;;;;;10503770;28;20197;-86
2023/04/16 07:57:40;;;;;;;9.13;6.63;;;8.50;99.90;;;;;;10554808;28;20221;-86
2023/04/16 08:03:01;;;;;;;10.03;6.43;;;8.70;99.90;;;;;;10553311;28;20240;-86
2023/04/16 08:08:22;;;;;;;10.60;6.93;;;9.00;99.90;;;;;;10535753;28;20192;-87
2023/04/16 08:13:44;;;;;;;27.77;11.17;;;9.20;99.90;;;;;;10536044;28;20209;-87
2023/04/16 08:19:05;;;;;;;14.67;7.17;;;9.10;99.90;;;;;;10530777;28;20187;-87
2023/04/16 08:24:26;;;;;;;18.60;8.07;;;9.00;99.90;;;;;;10492358;28;20303;-87
2023/04/16 08:29:48;;;;;;;21.63;11.10;;;8.90;99.90;;;;;;10516477;28;20483;-86
2023/04/16 08:35:10;;;;;;;9.00;6.23;;;8.80;99.90;;;;;;10533887;28;20204;-86
2023/04/16 08:40:33;;;;;;;26.17;15.87;;;8.70;99.90;;;;;;10534510;28;20202;-88
2023/04/16 08:45:56;;;;;;;22.83;14.07;;;8.70;99.90;;;;;;10519868;28;20402;-86
2023/04/16 08:51:20;;;;;;;19.57;11.27;;;8.70;99.90;;;;;;10534070;28;20575;-87
2023/04/16 08:56:41;;;;;;;13.20;6.63;;;9.10;99.90;;;;;;10533751;28;20285;-87
2023/04/16 09:02:05;;;;;;;13.87;8.37;;;9.40;99.90;;;;;;10496159;28;20221;-89
2023/04/16 09:07:28;;;;;;;5.53;4.37;;;9.40;99.90;;;;;;10542252;28;20213;-88
2023/04/16 09:12:50;;;;;;;3.90;3.50;;;9.30;99.90;;;;;;10519636;28;20546;-87
2023/04/16 09:18:11;;;;;;;5.43;3.90;;;9.00;99.90;;;;;;10501140;28;20208;-86
2023/04/16 09:23:32;;;;;;;8.47;4.80;;;8.90;99.90;;;;;;10507731;28;20589;-88
2023/04/16 09:28:54;;;;;;;6.00;4.80;;;8.80;99.90;;;;;;10490989;28;20210;-88
2023/04/16 09:34:15;;;;;;;11.50;5.30;;;8.70;99.90;;;;;;10545944;28;20484;-86
2023/04/16 09:39:37;;;;;;;15.67;7.87;;;8.80;99.90;;;;;;10517122;28;20252;-87
2023/04/16 09:44:59;;;;;;;13.30;8.83;;;8.90;99.90;;;;;;10518129;28;20413;-86
2023/04/16 09:50:25;;;;;;;6.80;5.47;;;9.00;99.90;;;;;;10517852;28;20199;-86
2023/04/16 09:55:46;;;;;;;9.17;5.70;;;9.30;99.90;;;;;;10505144;28;20525;-87
2023/04/16 10:01:10;;;;;;;13.97;8.33;;;9.80;99.90;;;;;;10517482;28;20210;-87
2023/04/16 10:06:31;;;;;;;5.80;4.10;;;10.60;99.90;;;;;;10542746;28;20517;-88
2023/04/16 10:11:52;;;;;;;3.10;2.77;;;10.90;99.90;;;;;;10506043;28;20191;-87
2023/04/16 10:17:15;;;;;;;4.80;3.03;;;11.10;99.90;;;;;;10489267;28;20198;-88
2023/04/16 10:22:36;;;;;;;3.47;3.13;;;11.10;99.90;;;;;;10492016;28;20228;-88
2023/04/16 10:27:58;;;;;;;4.83;3.47;;;11.10;99.90;;;;;;10502736;28;20428;-88
2023/04/16 10:33:23;;;;;;;17.33;7.90;;;10.60;99.90;;;;;;10504842;28;20209;-87
2023/04/16 10:38:49;;;;;;;7.77;4.53;;;10.40;99.90;;;;;;10502007;28;20410;-87
2023/04/16 10:44:11;;;;;;;23.27;10.20;;;10.40;99.90;;;;;;10493755;28;20232;-87
2023/04/16 10:49:34;;;;;;;13.57;5.70;;;10.30;99.90;;;;;;10504974;28;20238;-88
2023/04/16 10:54:58;;;;;;;3.67;3.27;;;10.50;99.90;;;;;;10502350;28;20392;-88
2023/04/16 11:00:22;;;;;;;4.70;3.07;;;10.70;99.90;;;;;;10525507;28;20242;-88
2023/04/16 11:05:45;;;;;;;7.20;3.60;;;11.10;99.90;;;;;;10529501;28;20456;-88
2023/04/16 11:11:06;;;;;;;4.47;3.67;;;11.30;99.90;;;;;;10515098;28;20188;-88
2023/04/16 11:16:30;;;;;;;5.73;3.63;;;11.30;99.90;;;;;;10504341;28;20270;-87
2023/04/16 11:21:52;;;;;;;5.70;4.30;;;10.90;99.90;;;;;;10504304;28;20200;-88
2023/04/16 11:27:14;;;;;;;7.83;4.40;;;10.70;99.90;;;;;;10501344;28;20202;-88
2023/04/16 11:32:37;;;;;;;6.37;3.87;;;10.80;99.90;;;;;;10533011;28;20201;-88
2023/04/16 11:37:59;;;;;;;5.70;3.80;;;11.00;99.90;;;;;;10536999;28;20218;-87
2023/04/16 11:43:20;;;;;;;4.67;3.33;;;11.30;99.90;;;;;;10515310;28;20248;-87
2023/04/16 11:48:49;;;;;;;2.50;2.23;;;11.50;99.90;;;;;;10511406;28;20192;-87
2023/04/16 11:54:19;;;;;;;3.87;3.00;;;11.70;99.90;;;;;;10521786;28;20242;-87
2023/04/16 11:59:46;;;;;;;5.90;4.17;;;11.90;99.90;;;;;;10495695;28;20235;-87
2023/04/16 12:05:34;;;;;;;7.43;4.20;;;11.80;99.90;;;;;;10522229;28;20271;-86
2023/04/16 12:10:56;;;;;;;9.70;5.33;;;11.50;99.90;;;;;;10531524;28;20252;-87
2023/04/16 12:16:19;;;;;;;5.50;3.20;;;11.30;99.90;;;;;;10538331;28;20197;-87
2023/04/16 12:21:49;;;;;;;4.53;3.30;;;11.20;99.90;;;;;;10535640;28;20200;-87
2023/04/16 12:27:10;;;;;;;4.13;2.93;;;11.10;99.90;;;;;;10497661;28;20208;-86
2023/04/16 12:32:32;;;;;;;3.90;3.10;;;11.00;99.90;;;;;;10511531;28;20194;-86
2023/04/16 12:37:53;;;;;;;7.80;3.53;;;11.20;99.90;;;;;;10512459;28;20220;-86
2023/04/16 12:43:15;;;;;;;7.47;4.67;;;11.70;99.90;;;;;;10545935;28;20224;-86
2023/04/16 12:48:36;;;;;;;5.03;3.90;;;12.10;99.90;;;;;;10520471;28;20208;-87
2023/04/16 12:53:59;;;;;;;9.63;5.53;;;12.30;99.90;;;;;;10550572;28;20225;-86
2023/04/16 12:59:20;;;;;;;9.07;6.23;;;12.20;99.20;;;;;;10519296;28;20293;-87
2023/04/16 13:04:42;;;;;;;7.00;5.00;;;12.20;99.90;;;;;;10550473;28;20251;-87
2023/04/16 13:10:04;;;;;;;5.10;3.90;;;11.80;99.90;;;;;;10514802;28;20226;-86
2023/04/16 13:15:25;;;;;;;5.90;3.40;;;11.90;99.90;;;;;;10491302;28;20248;-87
2023/04/16 13:20:47;;;;;;;5.67;3.60;;;11.90;99.90;;;;;;10507668;28;20205;-87
2023/04/16 13:26:08;;;;;;;7.83;4.33;;;12.00;99.90;;;;;;10510200;28;20236;-87
2023/04/16 13:31:30;;;;;;;7.90;4.50;;;12.10;99.90;;;;;;10490813;28;20551;-86
2023/04/16 13:36:51;;;;;;;3.70;3.30;;;12.20;99.10;;;;;;10518520;28;20442;-85
2023/04/16 13:42:13;;;;;;;16.30;8.60;;;12.00;99.90;;;;;;10531318;28;20200;-87
2023/04/16 13:47:35;;;;;;;13.33;8.30;;;12.00;99.90;;;;;;10517958;28;20216;-86
2023/04/16 13:52:56;;;;;;;6.70;4.90;;;12.00;99.90;;;;;;10508567;28;20489;-87
2023/04/16 13:58:18;;;;;;;7.83;5.00;;;12.00;99.90;;;;;;10530671;28;20190;-87
2023/04/16 14:03:40;;;;;;;6.43;3.27;;;11.80;98.50;;;;;;10523631;28;20535;-87
2023/04/16 14:09:03;;;;;;;5.87;2.90;;;11.70;98.90;;;;;;10510369;28;20233;-86
2023/04/16 14:14:25;;;;;;;5.80;3.47;;;11.70;99.70;;;;;;10498137;28;20193;-87
2023/04/16 14:19:46;;;;;;;6.47;3.80;;;11.80;96.90;;;;;;10531050;28;20496;-87
2023/04/16 14:25:08;;;;;;;6.43;4.00;;;11.70;89.60;;;;;;10525518;28;20239;-87
2023/04/16 14:30:29;;;;;;;8.23;3.90;;;11.80;94.10;;;;;;10530792;28;20270;-88
2023/04/16 14:35:51;;;;;;;7.30;3.83;;;11.60;93.90;;;;;;10546918;28;20230;-87
2023/04/16 14:41:12;;;;;;;5.93;3.40;;;11.40;96.10;;;;;;10508084;28;20200;-85
2023/04/16 14:46:34;;;;;;;5.43;4.03;;;11.30;77.40;;;;;;10494534;28;20250;-87
2023/04/16 14:51:56;;;;;;;7.00;5.17;;;11.20;91.30;;;;;;10506272;28;20201;-87
2023/04/16 14:57:17;;;;;;;7.93;5.30;;;11.20;89.50;;;;;;10536836;28;20193;-86
2023/04/16 15:02:38;;;;;;;8.33;5.47;;;11.20;94.80;;;;;;10510845;28;20246;-87
2023/04/16 15:08:00;;;;;;;15.47;7.90;;;11.10;96.70;;;;;;10547541;28;20249;-86
2023/04/16 15:13:22;;;;;;;14.43;8.67;;;;;;;;;;10512774;28;20293;-86
2023/04/16 15:18:43;;;;;;;8.90;6.43;;;10.70;93.10;;;;;;10516398;28;20479;-86
2023/04/16 15:24:05;;;;;;;14.57;9.00;;;10.70;92.40;;;;;;10537698;28;20294;-86
2023/04/16 15:29:26;;;;;;;10.30;6.80;;;10.60;92.80;;;;;;10518955;28;20202;-86
2023/04/16 15:34:48;;;;;;;12.10;6.70;;;10.50;92.70;;;;;;10537213;28;20287;-87
2023/04/16 15:40:09;;;;;;;9.03;6.63;;;10.50;93.80;;;;;;10510991;28;20277;-86
2023/04/16 15:45:31;;;;;;;10.43;6.77;;;10.50;95.20;;;;;;10487189;28;20231;-86
2023/04/16 15:50:54;;;;;;;9.67;7.10;;;10.50;93.70;;;;;;10507316;28;20202;-87
2023/04/16 15:56:15;;;;;;;9.43;7.13;;;10.50;94.70;;;;;;10495178;28;20204;-86
2023/04/16 16:01:37;;;;;;;8.67;6.87;;;10.40;94.70;;;;;;10484501;28;20201;-86
2023/04/16 16:06:58;;;;;;;10.80;7.43;;;10.40;95.60;;;;;;10490928;28;20256;-86
2023/04/16 16:12:20;;;;;;;10.90;6.70;;;10.40;95.30;;;;;;10477797;28;20200;-86
2023/04/16 16:17:41;;;;;;;15.67;9.47;;;10.30;94.40;;;;;;10470754;28;20209;-86
2023/04/16 16:23:03;;;;;;;14.17;8.40;;;10.30;94.50;;;;;;10501097;28;20321;-85
2023/04/16 16:28:24;;;;;;;11.80;7.23;;;10.20;94.70;;;;;;10510177;28;20493;-86
2023/04/16 16:33:45;;;;;;;13.40;8.07;;;10.00;96.20;;;;;;10490639;28;20360;-86
2023/04/16 16:39:06;;;;;;;13.87;8.03;;;9.90;96.80;;;;;;10481754;28;20236;-86
2023/04/16 16:44:28;;;;;;;14.57;9.27;;;9.90;96.20;;;;;;10468045;28;20228;-87
2023/04/16 16:49:50;;;;;;;14.30;9.23;;;9.90;97.30;;;;;;10464689;28;20224;-86
2023/04/16 16:55:11;;;;;;;14.33;9.33;;;9.80;98.10;;;;;;10477164;28;20193;-87
2023/04/16 17:00:32;;;;;;;13.20;10.00;;;9.70;98.80;;;;;;10508502;28;20198;-86
2023/04/16 17:05:54;;;;;;;22.03;13.87;;;9.70;97.90;;;;;;10496055;28;20229;-86
2023/04/16 17:11:15;;;;;;;24.97;12.73;;;9.60;97.80;;;;;;10508022;28;20420;-86
2023/04/16 17:16:36;;;;;;;15.23;11.57;;;9.60;98.90;;;;;;10501958;28;20205;-86
2023/04/16 17:21:58;;;;;;;22.70;13.13;;;9.60;99.30;;;;;;10501495;28;20234;-87
2023/04/16 17:27:19;;;;;;;18.30;12.30;;;9.50;99.40;;;;;;10522014;28;20237;-86
2023/04/16 17:32:40;;;;;;;14.77;11.07;;;9.30;99.90;;;;;;10503297;28;20201;-87
2023/04/16 17:38:02;;;;;;;18.43;13.87;;;9.20;99.90;;;;;;10530346;28;20490;-87
2023/04/16 17:43:23;;;;;;;18.93;12.77;;;9.10;99.90;;;;;;10492502;28;20230;-86
2023/04/16 17:48:46;;;;;;;20.00;13.70;;;9.00;99.90;;;;;;10526570;28;20224;-86
2023/04/16 17:54:08;;;;;;;20.63;13.70;;;8.90;99.90;;;;;;10526642;28;20256;-86
2023/04/16 17:59:29;;;;;;;19.97;13.70;;;8.80;99.90;;;;;;10545700;28;20200;-86
2023/04/16 18:04:50;;;;;;;20.43;13.13;;;8.80;99.90;;;;;;10534029;28;20226;-86
2023/04/16 18:10:12;;;;;;;16.67;12.50;;;8.80;99.90;;;;;;10508856;28;20258;-86
2023/04/16 18:15:37;;;;;;;19.23;12.07;;;8.90;99.90;;;;;;10501090;28;20204;-86
2023/04/16 18:20:58;;;;;;;15.57;10.70;;;8.80;99.90;;;;;;10504462;28;20224;-86
2023/04/16 18:26:20;;;;;;;18.93;12.10;;;8.70;99.90;;;;;;10525664;28;20282;-86
2023/04/16 18:31:42;;;;;;;21.03;11.83;;;8.70;99.90;;;;;;10529817;28;20488;-87
2023/04/16 18:37:04;;;;;;;22.63;13.80;;;8.60;99.90;;;;;;10532857;28;20237;-86
2023/04/16 18:42:28;;;;;;;30.77;16.13;;;8.60;99.90;;;;;;10504830;28;20198;-86
2023/04/16 18:47:49;;;;;;;37.30;16.23;;;8.50;99.90;;;;;;10488049;28;20196;-86
2023/04/16 18:53:11;;;;;;;33.57;15.20;;;8.50;99.90;;;;;;10495576;28;20204;-86
2023/04/16 18:58:32;;;;;;;26.77;14.33;;;8.50;99.90;;;;;;10523060;28;20201;-86
2023/04/16 19:03:53;;;;;;;19.00;13.03;;;8.50;99.90;;;;;;10543293;28;20526;-86
2023/04/16 19:09:15;;;;;;;30.60;17.57;;;8.60;99.90;;;;;;10531888;28;20202;-86
2023/04/16 19:14:36;;;;;;;34.03;17.63;;;8.50;99.90;;;;;;10487670;28;20197;-86
2023/04/16 19:19:58;;;;;;;29.17;17.23;;;8.60;99.90;;;;;;10504598;28;20192;-86
2023/04/16 19:25:19;;;;;;;31.03;15.63;;;8.50;99.90;;;;;;10493939;28;20215;-86
2023/04/16 19:30:45;;;;;;;26.27;14.70;;;8.50;99.90;;;;;;10487325;28;20264;-86
2023/04/16 19:36:06;;;;;;;20.00;12.40;;;8.50;99.90;;;;;;10503659;28;20227;-86
2023/04/16 19:41:28;;;;;;;18.40;12.27;;;8.40;99.90;;;;;;10501548;28;20227;-86
2023/04/16 19:46:49;;;;;;;23.53;12.33;;;8.40;99.90;;;;;;10486965;28;20222;-86
2023/04/16 19:52:11;;;;;;;22.57;13.23;;;8.30;99.90;;;;;;10507341;28;20198;-85
2023/04/16 19:57:32;;;;;;;21.70;13.70;;;8.30;99.90;;;;;;10545514;28;20322;-86
2023/04/16 20:02:53;;;;;;;17.37;12.57;;;8.30;99.90;;;;;;10535897;28;20208;-87
2023/04/16 20:08:15;;;;;;;20.73;11.93;;;8.20;99.90;;;;;;10518142;28;20463;-85
2023/04/16 20:13:36;;;;;;;17.43;13.27;;;8.10;99.90;;;;;;10494212;28;20263;-86
2023/04/16 20:18:59;;;;;;;19.37;11.57;;;8.10;99.90;;;;;;10496609;28;20276;-86
2023/04/16 20:24:22;;;;;;;16.40;11.17;;;8.00;99.90;;;;;;10504590;28;20232;-86
2023/04/16 20:29:43;;;;;;;15.30;11.73;;;7.90;99.90;;;;;;10521157;28;20272;-85
2023/04/16 20:35:09;;;;;;;19.87;13.30;;;7.80;99.90;;;;;;10534699;28;20204;-86
2023/04/16 20:40:30;;;;;;;18.67;12.40;;;7.70;99.90;;;;;;10440397;28;20209;-87
2023/04/16 20:45:51;;;;;;;17.93;12.00;;;7.70;99.90;;;;;;10412769;28;20225;-86
2023/04/16 20:51:13;;;;;;;17.67;13.23;;;;;;;;;;10440443;28;20198;-86
2023/04/16 20:56:34;;;;;;;19.87;13.47;;;7.50;99.90;;;;;;10444478;28;20206;-86
2023/04/16 21:01:56;;;;;;;16.37;12.33;;;7.30;99.90;;;;;;10467224;28;20244;-85
2023/04/16 21:07:18;;;;;;;16.77;11.63;;;7.20;99.90;;;;;;10431367;28;20221;-86
2023/04/16 21:12:39;;;;;;;16.63;12.67;;;7.20;99.90;;;;;;10439603;28;20205;-86
2023/04/16 21:18:00;;;;;;;17.83;13.53;;;;;;;;;;10425816;28;20190;-86
2023/04/16 21:23:22;;;;;;;21.03;14.13;;;7.00;99.90;;;;;;10431706;28;20462;-86
2023/04/16 21:28:43;;;;;;;22.60;13.20;;;7.00;99.90;;;;;;10441372;28;20421;-86
2023/04/16 21:34:04;;;;;;;19.87;14.30;;;7.00;99.90;;;;;;10439065;28;20193;-86
2023/04/16 21:39:29;;;;;;;23.57;16.67;;;7.00;99.90;;;;;;10462044;28;20596;-86
2023/04/16 21:44:51;;;;;;;20.63;14.67;;;7.00;99.90;;;;;;10479812;28;20224;-86
2023/04/16 21:50:12;;;;;;;17.53;13.47;;;6.90;99.90;;;;;;10465542;28;20200;-86
2023/04/16 21:55:33;;;;;;;19.47;13.53;;;7.00;99.90;;;;;;10495504;28;20263;-86
2023/04/16 22:00:55;;;;;;;19.10;14.90;;;7.00;99.90;;;;;;10506977;28;20267;-86
2023/04/16 22:06:17;;;;;;;22.20;14.87;;;6.90;99.90;;;;;;10487558;28;20309;-86
2023/04/16 22:11:39;;;;;;;20.00;14.10;;;6.80;99.90;;;;;;10482935;28;20211;-86
2023/04/16 22:17:00;;;;;;;18.63;14.40;;;6.70;99.90;;;;;;10463751;28;20220;-86
2023/04/16 22:22:22;;;;;;;18.73;14.63;;;;;;;;;;10478505;28;20212;-86
2023/04/16 22:27:43;;;;;;;20.37;14.77;;;6.60;99.90;;;;;;10460968;28;20534;-86
2023/04/16 22:33:04;;;;;;;21.40;14.77;;;6.60;99.90;;;;;;10464064;28;20200;-86
2023/04/16 22:38:26;;;;;;;19.87;14.33;;;6.70;99.90;;;;;;10483787;28;20244;-86
2023/04/16 22:43:47;;;;;;;19.00;13.00;;;6.70;99.90;;;;;;10479927;28;20232;-86
2023/04/16 22:49:09;;;;;;;18.00;13.17;;;6.70;99.90;;;;;;10477883;28;20193;-86
2023/04/16 22:54:32;;;;;;;16.63;13.43;;;6.80;99.90;;;;;;10451509;28;20223;-85
2023/04/16 22:59:53;;;;;;;16.63;12.60;;;6.70;99.90;;;;;;10490664;28;20283;-85
2023/04/16 23:05:14;;;;;;;16.30;11.97;;;6.70;99.90;;;;;;10503970;28;20254;-85
2023/04/16 23:10:36;;;;;;;16.80;13.33;;;6.70;99.90;;;;;;10485072;28;20203;-85
2023/04/16 23:15:57;;;;;;;14.23;11.53;;;6.60;99.90;;;;;;10504247;28;20202;-85
2023/04/16 23:21:18;;;;;;;15.40;11.57;;;6.50;99.90;;;;;;10504544;28;20195;-85
2023/04/16 23:26:40;;;;;;;13.87;10.57;;;6.50;99.90;;;;;;10466069;28;20404;-85
2023/04/16 23:32:01;;;;;;;13.40;10.63;;;6.60;99.90;;;;;;10456954;28;20193;-85
2023/04/16 23:37:23;;;;;;;15.67;10.57;;;6.60;99.90;;;;;;10487860;28;20448;-85
2023/04/16 23:42:44;;;;;;;14.13;10.23;;;6.60;99.90;;;;;;10498062;28;20263;-86
2023/04/16 23:48:05;;;;;;;14.37;10.27;;;6.60;99.90;;;;;;10494817;28;20229;-87
2023/04/16 23:53:27;;;;;;;11.73;9.80;;;6.60;99.90;;;;;;10507646;28;20195;-85
2023/04/16 23:58:48;;;;;;;11.83;9.87;;;6.70;99.90;;;;;;10522002;28;20215;-85
